Time;durP1;ratioP1;P1;durP2;ratioP2;P2;SDS_P1;SDS_P2;PMS_P1;PMS_P2;Temp;Humidity;BMP_temperature;BMP_pressure;BME280_temperature;BME280_humidity;BME280_pressure;Samples;Min_cycle;Max_cycle;Signal;HPM_P1;HPM_P2
2023/07/24 00:00:35;;;;;;;;;;;20.20;99.90;;;;;;7341071;19;108342;-73
2023/07/24 00:03:02;;;;;;;;;;;20.20;99.90;;;;;;7334672;19;109269;-73
2023/07/24 00:05:30;;;;;;;;;;;20.30;99.90;;;;;;7358834;19;110259;-87
2023/07/24 00:07:57;;;;;;;;;;;20.30;99.90;;;;;;7368801;19;109668;-87
2023/07/24 00:10:24;;;;;;;;;;;20.30;99.90;;;;;;7368710;19;110521;-87
2023/07/24 00:12:51;;;;;;;;;;;20.30;99.90;;;;;;7363212;19;112381;-87
2023/07/24 00:15:18;;;;;;;;;;;20.30;99.90;;;;;;7366362;19;108371;-87
2023/07/24 00:17:46;;;;;;;;;;;20.30;99.90;;;;;;7350407;19;110034;-87
2023/07/24 00:20:13;;;;;;;;;;;20.30;99.90;;;;;;7333960;19;109296;-87
2023/07/24 00:22:40;;;;;;;;;;;20.30;99.90;;;;;;7329618;19;109587;-87
2023/07/24 00:25:08;;;;;;;;;;;20.30;99.90;;;;;;7333960;19;110490;-71
2023/07/24 00:27:36;;;;;;;;;;;20.30;99.90;;;;;;7338082;19;108604;-72
2023/07/24 00:30:03;;;;;;;;;;;20.30;99.90;;;;;;7335968;19;108760;-72
2023/07/24 00:32:30;;;;;;;;;;;20.30;99.90;;;;;;7337804;19;109635;-71
2023/07/24 00:34:58;;;;;;;;;;;20.30;99.90;;;;;;7335561;19;111506;-71
2023/07/24 00:37:26;;;;;;;;;;;20.20;99.90;;;;;;7340125;19;109081;-71
2023/07/24 00:39:53;;;;;;;;;;;20.20;99.90;;;;;;7342493;19;109996;-71
2023/07/24 00:42:20;;;;;;;;;;;20.30;99.90;;;;;;7336392;19;109079;-74
2023/07/24 00:44:48;;;;;;;;;;;20.30;99.90;;;;;;7334880;19;109068;-71
2023/07/24 00:47:16;;;;;;;;;;;20.30;99.90;;;;;;7332371;19;108704;-71
2023/07/24 00:49:44;;;;;;;;;;;20.30;99.90;;;;;;7338230;19;112374;-71
2023/07/24 00:52:11;;;;;;;;;;;20.30;99.90;;;;;;7337343;19;110214;-72
2023/07/24 00:54:39;;;;;;;;;;;20.30;99.90;;;;;;7337038;19;110608;-71
2023/07/24 00:57:06;;;;;;;;;;;20.30;99.90;;;;;;7334777;19;110221;-71
2023/07/24 00:59:33;;;;;;;;;;;20.30;99.90;;;;;;7335133;19;110431;-71
2023/07/24 01:02:00;;;;;;;;;;;20.30;99.90;;;;;;7341210;19;109474;-72
2023/07/24 01:04:27;;;;;;;;;;;20.30;99.90;;;;;;7336672;19;109788;-70
2023/07/24 01:07:04;;;;;;;;;;;20.30;99.90;;;;;;7336663;19;109361;-70
2023/07/24 01:09:31;;;;;;;;;;;20.30;99.90;;;;;;7337504;19;108600;-71
2023/07/24 01:12:10;;;;;;;;;;;20.30;99.90;;;;;;7337718;19;109859;-71
2023/07/24 01:14:48;;;;;;;;;;;20.30;99.90;;;;;;7336649;19;109769;-71
2023/07/24 01:17:23;;;;;;;;;;;20.30;99.90;;;;;;7334237;19;110374;-71
2023/07/24 01:19:54;;;;;;;;;;;20.30;99.90;;;;;;7334503;19;110767;-71
2023/07/24 01:22:27;;;;;;;;;;;20.30;99.90;;;;;;7332206;19;108990;-71
2023/07/24 01:24:54;;;;;;;;;;;20.20;99.90;;;;;;7339219;19;109494;-72
2023/07/24 01:27:24;;;;;;;;;;;20.20;99.90;;;;;;7331910;19;109191;-72
2023/07/24 01:29:51;;;;;;;;;;;20.30;99.90;;;;;;7334403;19;109898;-72
2023/07/24 01:32:19;;;;;;;;;;;20.30;99.90;;;;;;7331525;19;110117;-72
2023/07/24 01:34:46;;;;;;;;;;;20.20;99.90;;;;;;7332828;19;109649;-72
2023/07/24 01:37:14;;;;;;;;;;;20.20;99.90;;;;;;7330955;19;109420;-71
2023/07/24 01:39:41;;;;;;;;;;;20.20;99.90;;;;;;7332885;19;109994;-71
2023/07/24 01:42:09;;;;;;;;;;;20.20;99.90;;;;;;7333388;19;110010;-72
2023/07/24 01:44:36;;;;;;;;;;;20.20;99.90;;;;;;7333128;19;109570;-72
2023/07/24 01:47:03;;;;;;;;;;;20.20;99.90;;;;;;7337667;19;109807;-71
2023/07/24 01:49:30;;;;;;;;;;;20.20;99.90;;;;;;7333537;19;108515;-72
2023/07/24 01:51:57;;;;;;;;;;;20.20;99.90;;;;;;7331117;19;110028;-72
2023/07/24 01:54:24;;;;;;;;;;;20.20;99.90;;;;;;7329528;19;110479;-71
2023/07/24 01:56:52;;;;;;;;;;;20.20;99.90;;;;;;7331159;19;109615;-71
2023/07/24 01:59:19;;;;;;;;;;;20.20;99.90;;;;;;7333720;19;110195;-72
2023/07/24 02:01:46;;;;;;;;;;;20.20;99.90;;;;;;7338769;19;108731;-87
2023/07/24 02:04:13;;;;;;;;;;;20.20;99.90;;;;;;7334770;19;111300;-89
2023/07/24 02:06:41;;;;;;;;;;;20.20;99.90;;;;;;7325585;19;109912;-74
2023/07/24 02:09:09;;;;;;;;;;;20.20;99.90;;;;;;7339923;19;108659;-72
2023/07/24 02:11:37;;;;;;;;;;;20.20;99.90;;;;;;7335331;19;110589;-75
2023/07/24 02:14:04;;;;;;;;;;;20.20;99.90;;;;;;7328824;19;109966;-72
2023/07/24 02:16:31;;;;;;;;;;;20.20;99.90;;;;;;7334565;19;109005;-71
2023/07/24 02:18:59;;;;;;;;;;;20.10;99.90;;;;;;7332985;19;110494;-71
2023/07/24 02:21:26;;;;;;;;;;;20.10;99.90;;;;;;7330463;19;108779;-71
2023/07/24 02:23:53;;;;;;;;;;;20.10;99.90;;;;;;7334438;19;109591;-70
2023/07/24 02:26:20;;;;;;;;;;;20.10;99.90;;;;;;7330112;19;110050;-71
2023/07/24 02:28:47;;;;;;;;;;;20.10;99.90;;;;;;7336022;19;110282;-70
2023/07/24 02:31:14;;;;;;;;;;;20.10;99.90;;;;;;7331245;19;110215;-71
2023/07/24 02:33:41;;;;;;;;;;;20.00;99.90;;;;;;7332478;19;109890;-71
2023/07/24 02:36:08;;;;;;;;;;;20.00;99.90;;;;;;7330740;19;108926;-71
2023/07/24 02:38:36;;;;;;;;;;;19.90;99.90;;;;;;7334659;19;110267;-71
2023/07/24 02:41:03;;;;;;;;;;;20.00;99.90;;;;;;7334910;19;110206;-70
2023/07/24 02:43:31;;;;;;;;;;;19.90;99.90;;;;;;7328016;19;109283;-71
2023/07/24 02:46:01;;;;;;;;;;;19.90;99.90;;;;;;7333623;19;109553;-71
2023/07/24 02:48:29;;;;;;;;;;;19.90;99.90;;;;;;7340142;19;108817;-70
2023/07/24 02:50:56;;;;;;;;;;;19.90;99.90;;;;;;7344532;19;109995;-72
2023/07/24 02:53:23;;;;;;;;;;;19.90;99.90;;;;;;7340561;19;108511;-73
2023/07/24 02:55:50;;;;;;;;;;;19.80;99.90;;;;;;7336897;19;109262;-73
2023/07/24 02:58:17;;;;;;;;;;;19.80;99.90;;;;;;7335402;19;110639;-72
2023/07/24 03:00:44;;;;;;;;;;;19.80;99.90;;;;;;7339431;19;108986;-69
2023/07/24 03:03:11;;;;;;;;;;;19.80;99.90;;;;;;7333831;19;109620;-69
2023/07/24 03:05:39;;;;;;;;;;;19.80;99.90;;;;;;7339451;19;110206;-68
2023/07/24 03:08:06;;;;;;;;;;;19.70;99.90;;;;;;7338433;19;109521;-69
2023/07/24 03:10:33;;;;;;;;;;;19.80;99.90;;;;;;7339839;19;109214;-68
2023/07/24 03:13:00;;;;;;;;;;;19.70;99.90;;;;;;7343469;19;109567;-68
2023/07/24 03:15:27;;;;;;;;;;;19.70;99.90;;;;;;7338046;19;109113;-68
2023/07/24 03:17:54;;;;;;;;;;;19.70;99.90;;;;;;7339276;19;109729;-69
2023/07/24 03:20:21;;;;;;;;;;;19.70;99.90;;;;;;7336362;19;109131;-69
2023/07/24 03:22:48;;;;;;;;;;;19.70;99.90;;;;;;7336731;19;111084;-69
2023/07/24 03:25:16;;;;;;;;;;;19.60;99.90;;;;;;7336348;19;109304;-68
2023/07/24 03:27:43;;;;;;;;;;;19.60;99.90;;;;;;7339148;19;108946;-68
2023/07/24 03:30:11;;;;;;;;;;;19.70;99.90;;;;;;7335435;19;109503;-69
2023/07/24 03:32:38;;;;;;;;;;;19.60;99.90;;;;;;7339005;19;110122;-70
2023/07/24 03:35:06;;;;;;;;;;;19.60;99.90;;;;;;7341855;19;108957;-69
2023/07/24 03:37:36;;;;;;;;;;;19.60;99.90;;;;;;7340167;19;109470;-69
2023/07/24 03:40:03;;;;;;;;;;;19.60;99.90;;;;;;7335054;19;108821;-68
2023/07/24 03:42:31;;;;;;;;;;;19.50;99.90;;;;;;7335116;19;109924;-70
2023/07/24 03:44:58;;;;;;;;;;;19.50;99.90;;;;;;7334717;19;111442;-68
2023/07/24 03:47:25;;;;;;;;;;;19.50;99.90;;;;;;7333285;19;108324;-69
2023/07/24 03:49:53;;;;;;;;;;;19.40;99.90;;;;;;7336983;19;110057;-67
2023/07/24 03:52:20;;;;;;;;;;;19.40;99.90;;;;;;7336583;19;109466;-67
2023/07/24 03:54:47;;;;;;;;;;;19.30;99.90;;;;;;7337762;19;108997;-66
2023/07/24 03:57:14;;;;;;;;;;;19.20;99.90;;;;;;7340236;19;108128;-67
2023/07/24 03:59:42;;;;;;;;;;;19.20;99.90;;;;;;7336936;19;109334;-66
2023/07/24 04:02:10;;;;;;;;;;;19.20;99.90;;;;;;7334567;19;110035;-66
2023/07/24 04:04:37;;;;;;;;;;;19.10;99.90;;;;;;7336097;19;110523;-67
2023/07/24 04:07:04;;;;;;;;;;;19.10;99.90;;;;;;7338428;19;108720;-66
2023/07/24 04:09:32;;;;;;;;;;;19.00;99.90;;;;;;7338882;19;109314;-67
2023/07/24 04:11:59;;;;;;;;;;;19.00;99.90;;;;;;7337090;19;109110;-67
2023/07/24 04:14:26;;;;;;;;;;;19.00;99.90;;;;;;7336012;19;108872;-67
2023/07/24 04:16:55;;;;;;;;;;;19.00;99.90;;;;;;7340309;19;109987;-67
2023/07/24 04:19:22;;;;;;;;;;;19.00;99.90;;;;;;7336650;19;110939;-67
2023/07/24 04:21:49;;;;;;;;;;;19.00;99.90;;;;;;7335307;19;108858;-67
2023/07/24 04:24:17;;;;;;;;;;;19.00;99.90;;;;;;7338778;19;111234;-67
2023/07/24 04:26:44;;;;;;;;;;;19.00;99.90;;;;;;7333844;19;111666;-67
2023/07/24 04:29:11;;;;;;;;;;;19.00;99.90;;;;;;7335701;19;109164;-67
2023/07/24 04:31:38;;;;;;;;;;;18.90;99.90;;;;;;7334517;19;109107;-67
2023/07/24 04:34:05;;;;;;;;;;;18.90;99.90;;;;;;7337003;19;108912;-66
2023/07/24 04:36:32;;;;;;;;;;;18.90;99.90;;;;;;7330434;19;110487;-67
2023/07/24 04:38:59;;;;;;;;;;;18.90;99.90;;;;;;7341584;19;108888;-67
2023/07/24 04:41:26;;;;;;;;;;;18.90;99.90;;;;;;7335702;19;108777;-67
2023/07/24 04:43:53;;;;;;;;;;;18.90;99.90;;;;;;7334036;19;109383;-67
2023/07/24 04:46:20;;;;;;;;;;;18.90;99.90;;;;;;7332543;19;108612;-67
2023/07/24 04:48:47;;;;;;;;;;;18.90;99.90;;;;;;7337099;19;108635;-67
2023/07/24 04:51:15;;;;;;;;;;;19.00;99.90;;;;;;7331550;19;109872;-67
2023/07/24 04:53:42;;;;;;;;;;;19.00;99.90;;;;;;7336817;19;108875;-67
2023/07/24 04:56:10;;;;;;;;;;;19.00;99.90;;;;;;7336275;19;108934;-67
2023/07/24 04:58:37;;;;;;;;;;;19.00;99.90;;;;;;7335761;19;113738;-68
2023/07/24 05:01:05;;;;;;;;;;;19.00;99.90;;;;;;7340489;19;110301;-67
2023/07/24 05:03:32;;;;;;;;;;;19.00;99.90;;;;;;7333446;19;109495;-67
2023/07/24 05:05:59;;;;;;;;;;;19.00;99.90;;;;;;7334447;19;109064;-67
2023/07/24 05:08:26;;;;;;;;;;;19.00;99.90;;;;;;7335434;19;108429;-67
2023/07/24 05:10:55;;;;;;;;;;;19.00;99.90;;;;;;7335069;19;109053;-67
2023/07/24 05:13:22;;;;;;;;;;;19.00;99.90;;;;;;7333905;19;109542;-67
2023/07/24 05:15:49;;;;;;;;;;;19.10;99.90;;;;;;7330085;19;108271;-67
2023/07/24 05:18:16;;;;;;;;;;;19.10;99.90;;;;;;7331807;19;109926;-67
2023/07/24 05:20:47;;;;;;;;;;;19.10;99.90;;;;;;7335292;19;108767;-67
2023/07/24 05:23:14;;;;;;;;;;;19.10;99.90;;;;;;7340094;19;109480;-67
2023/07/24 05:25:42;;;;;;;;;;;19.10;99.90;;;;;;7336480;19;108949;-67
2023/07/24 05:28:09;;;;;;;;;;;19.10;99.90;;;;;;7336338;19;108672;-67
2023/07/24 05:30:36;;;;;;;;;;;19.20;99.90;;;;;;7335364;19;112050;-67
2023/07/24 05:33:03;;;;;;;;;;;19.20;99.90;;;;;;7337652;19;108629;-67
2023/07/24 05:35:31;;;;;;;;;;;19.20;99.90;;;;;;7337057;19;109269;-67
2023/07/24 05:37:58;;;;;;;;;;;19.20;99.90;;;;;;7335820;19;109539;-67
2023/07/24 05:40:25;;;;;;;;;;;19.20;99.90;;;;;;7336224;19;108626;-67
2023/07/24 05:42:52;;;;;;;;;;;19.20;99.90;;;;;;7336158;19;108385;-67
2023/07/24 05:45:19;;;;;;;;;;;19.20;99.90;;;;;;7339987;19;109135;-67
2023/07/24 05:47:46;;;;;;;;;;;19.20;99.90;;;;;;7335368;19;108524;-66
2023/07/24 05:50:14;;;;;;;;;;;19.20;99.90;;;;;;7334968;19;109834;-71
2023/07/24 05:52:41;;;;;;;;;;;19.20;99.90;;;;;;7335175;19;108800;-72
2023/07/24 05:55:08;;;;;;;;;;;19.20;99.90;;;;;;7337042;19;109632;-71
2023/07/24 05:57:35;;;;;;;;;;;19.30;99.90;;;;;;7335666;19;110113;-71
2023/07/24 06:00:06;;;;;;;;;;;19.30;99.90;;;;;;7335278;19;108611;-71
2023/07/24 06:02:33;;;;;;;;;;;19.30;99.90;;;;;;7333944;19;111221;-70
2023/07/24 06:05:00;;;;;;;;;;;19.40;99.90;;;;;;7334027;19;110878;-70
2023/07/24 06:07:27;;;;;;;;;;;19.50;99.90;;;;;;7339193;19;109693;-71
2023/07/24 06:09:54;;;;;;;;;;;19.60;99.90;;;;;;7333765;19;110424;-71
2023/07/24 06:12:22;;;;;;;;;;;19.80;99.90;;;;;;7333933;19;109843;-71
2023/07/24 06:14:49;;;;;;;;;;;19.80;99.90;;;;;;7336266;19;108871;-71
2023/07/24 06:17:16;;;;;;;;;;;19.80;99.90;;;;;;7329677;19;109114;-72
2023/07/24 06:19:46;;;;;;;;;;;19.80;99.90;;;;;;7333730;19;109560;-72
2023/07/24 06:22:13;;;;;;;;;;;19.90;99.90;;;;;;7334484;19;110891;-71
2023/07/24 06:24:40;;;;;;;;;;;19.90;99.90;;;;;;7335002;19;110008;-71
2023/07/24 06:27:08;;;;;;;;;;;19.90;99.90;;;;;;7338312;19;108874;-71
2023/07/24 06:29:35;;;;;;;;;;;19.90;99.90;;;;;;7335335;19;110998;-72
2023/07/24 06:32:06;;;;;;;;;;;20.00;99.90;;;;;;7334022;19;108968;-71
2023/07/24 06:34:33;;;;;;;;;;;20.10;99.90;;;;;;7335737;19;108677;-71
2023/07/24 06:37:00;;;;;;;;;;;20.10;99.90;;;;;;7334402;19;110631;-71
2023/07/24 06:39:43;;;;;;;;;;;20.10;99.90;;;;;;7333597;19;109466;-71
2023/07/24 06:42:10;;;;;;;;;;;20.20;99.90;;;;;;7335076;19;108724;-71
2023/07/24 06:44:37;;;;;;;;;;;20.20;99.90;;;;;;7331966;19;108966;-71
2023/07/24 06:47:04;;;;;;;;;;;20.20;99.90;;;;;;7333774;19;108605;-70
2023/07/24 06:49:31;;;;;;;;;;;20.30;99.90;;;;;;7336467;19;108267;-71
2023/07/24 06:51:58;;;;;;;;;;;20.30;99.90;;;;;;7334256;19;109153;-70
2023/07/24 06:54:25;;;;;;;;;;;20.40;99.90;;;;;;7333921;19;110116;-71
2023/07/24 06:56:53;;;;;;;;;;;20.50;99.90;;;;;;7334914;19;109781;-70
2023/07/24 06:59:20;;;;;;;;;;;20.60;99.90;;;;;;7333308;19;108415;-71
2023/07/24 07:01:47;;;;;;;;;;;20.60;99.90;;;;;;7333165;19;112530;-70
2023/07/24 07:04:14;;;;;;;;;;;20.60;99.90;;;;;;7331672;19;111056;-71
2023/07/24 07:06:41;;;;;;;;;;;20.60;99.90;;;;;;7334653;19;110289;-72
2023/07/24 07:09:08;;;;;;;;;;;20.60;99.90;;;;;;7333547;19;108878;-75
2023/07/24 07:11:35;;;;;;;;;;;20.50;99.90;;;;;;7337941;19;109921;-72
2023/07/24 07:14:02;;;;;;;;;;;20.50;99.90;;;;;;7333656;19;109004;-71
2023/07/24 07:16:30;;;;;;;;;;;20.50;99.90;;;;;;7334810;19;109015;-72
2023/07/24 07:18:57;;;;;;;;;;;20.50;99.90;;;;;;7331531;19;110137;-72
2023/07/24 07:21:24;;;;;;;;;;;20.50;99.90;;;;;;7330227;19;110200;-72
2023/07/24 07:23:51;;;;;;;;;;;20.50;99.90;;;;;;7332690;19;109144;-73
2023/07/24 07:26:18;;;;;;;;;;;20.50;99.90;;;;;;7332366;19;108982;-72
2023/07/24 07:28:45;;;;;;;;;;;20.60;99.90;;;;;;7331250;19;109158;-71
2023/07/24 07:31:13;;;;;;;;;;;20.60;99.90;;;;;;7331496;19;111062;-71
2023/07/24 07:33:40;;;;;;;;;;;20.70;99.90;;;;;;7344398;19;108706;-71
2023/07/24 07:36:07;;;;;;;;;;;20.70;99.90;;;;;;7338432;19;110315;-71
2023/07/24 07:38:35;;;;;;;;;;;20.70;99.90;;;;;;7338291;19;108910;-71
2023/07/24 07:41:05;;;;;;;;;;;20.80;99.90;;;;;;7339637;19;109441;-71
2023/07/24 07:43:32;;;;;;;;;;;20.90;99.90;;;;;;7340660;19;110226;-72
2023/07/24 07:45:59;;;;;;;;;;;20.90;99.90;;;;;;7337902;19;108974;-71
2023/07/24 07:48:26;;;;;;;;;;;20.90;99.90;;;;;;7337851;19;109083;-72
2023/07/24 07:50:54;;;;;;;;;;;20.90;99.90;;;;;;7333953;19;112892;-72
2023/07/24 07:53:21;;;;;;;;;;;21.00;99.90;;;;;;7338214;19;109019;-72
2023/07/24 07:55:54;;;;;;;;;;;21.00;99.90;;;;;;7344564;19;110317;-72
2023/07/24 07:58:22;;;;;;;;;;;20.90;99.90;;;;;;7336017;19;108385;-72
2023/07/24 08:00:49;;;;;;;;;;;20.80;99.90;;;;;;7337700;19;110127;-72
2023/07/24 08:03:16;;;;;;;;;;;20.80;99.90;;;;;;7337501;19;112645;-72
2023/07/24 08:05:43;;;;;;;;;;;20.90;99.90;;;;;;7336645;19;110460;-71
2023/07/24 08:08:10;;;;;;;;;;;20.90;99.90;;;;;;7332521;19;109353;-72
2023/07/24 08:10:38;;;;;;;;;;;20.90;99.90;;;;;;7335273;19;109131;-72
2023/07/24 08:13:05;;;;;;;;;;;20.80;99.90;;;;;;7336669;19;108408;-71
2023/07/24 08:15:36;;;;;;;;;;;20.80;99.90;;;;;;7332950;19;112461;-72
2023/07/24 08:18:04;;;;;;;;;;;20.90;99.90;;;;;;7341337;19;110149;-72
2023/07/24 08:20:35;;;;;;;;;;;21.00;99.90;;;;;;7332947;19;109763;-71
2023/07/24 08:23:03;;;;;;;;;;;21.10;99.90;;;;;;7334599;19;110173;-73
2023/07/24 08:25:30;;;;;;;;;;;21.30;99.90;;;;;;7336312;19;110053;-73
2023/07/24 08:27:57;;;;;;;;;;;21.40;99.90;;;;;;7334823;19;108805;-72
2023/07/24 08:30:28;;;;;;;;;;;21.50;99.90;;;;;;7335326;19;112052;-72
2023/07/24 08:32:56;;;;;;;;;;;21.60;99.90;;;;;;7335019;19;108740;-72
2023/07/24 08:35:23;;;;;;;;;;;21.70;99.90;;;;;;7334600;19;109286;-73
2023/07/24 08:37:50;;;;;;;;;;;21.90;99.90;;;;;;7337633;19;109356;-73
2023/07/24 08:40:17;;;;;;;;;;;22.00;99.90;;;;;;7334794;19;109107;-73
2023/07/24 08:42:46;;;;;;;;;;;22.10;99.90;;;;;;7332833;19;111075;-74
2023/07/24 08:45:16;;;;;;;;;;;22.20;99.90;;;;;;7336485;19;108759;-75
2023/07/24 08:47:44;;;;;;;;;;;22.30;99.90;;;;;;7332962;19;109096;-73
2023/07/24 08:50:12;;;;;;;;;;;22.30;99.90;;;;;;7333442;19;109682;-75
2023/07/24 08:52:39;;;;;;;;;;;22.30;99.90;;;;;;7334950;19;108327;-74
2023/07/24 08:55:09;;;;;;;;;;;22.30;99.90;;;;;;7333728;19;109464;-75
2023/07/24 08:57:36;;;;;;;;;;;22.40;99.90;;;;;;7334411;19;109215;-75
2023/07/24 09:00:04;;;;;;;;;;;22.30;99.90;;;;;;7339590;19;108585;-75
2023/07/24 09:02:32;;;;;;;;;;;22.30;99.90;;;;;;7336822;19;111849;-75
2023/07/24 09:05:00;;;;;;;;;;;22.30;99.90;;;;;;7335103;19;109589;-76
2023/07/24 09:07:27;;;;;;;;;;;22.10;99.90;;;;;;7127714;19;4012293;-73
2023/07/24 09:09:54;;;;;;;;;;;22.10;99.90;;;;;;7339046;19;110239;-75
2023/07/24 09:12:22;;;;;;;;;;;22.00;99.90;;;;;;7338790;19;108510;-75
2023/07/24 09:15:00;;;;;;;;;;;21.90;99.90;;;;;;7338627;19;109268;-75
2023/07/24 09:17:27;;;;;;;;;;;21.90;99.90;;;;;;7334875;19;109425;-73
2023/07/24 09:19:57;;;;;;;;;;;21.80;99.90;;;;;;7334334;19;109981;-73
2023/07/24 09:22:26;;;;;;;;;;;21.80;99.90;;;;;;7340203;19;108551;-76
2023/07/24 09:24:54;;;;;;;;;;;21.70;99.90;;;;;;7337010;19;109126;-74
2023/07/24 09:27:26;;;;;;;;;;;21.60;99.90;;;;;;7332462;19;108930;-72
2023/07/24 09:29:54;;;;;;;;;;;21.60;99.90;;;;;;7331691;19;110597;-72
2023/07/24 09:32:22;;;;;;;;;;;21.50;99.90;;;;;;7335087;19;109348;-73
2023/07/24 09:34:55;;;;;;;;;;;21.40;99.90;;;;;;7334421;19;110453;-72
2023/07/24 09:37:43;;;;;;;;;;;21.40;99.90;;;;;;7336048;19;110125;-74
2023/07/24 09:40:11;;;;;;;;;;;21.40;99.90;;;;;;7331611;19;110560;-73
2023/07/24 09:42:39;;;;;;;;;;;21.30;99.90;;;;;;7334349;19;108518;-73
2023/07/24 09:45:25;;;;;;;;;;;21.30;99.90;;;;;;7338213;19;110335;-73
2023/07/24 09:47:56;;;;;;;;;;;21.30;99.90;;;;;;7331293;19;112882;-73
2023/07/24 09:50:31;;;;;;;;;;;21.20;99.90;;;;;;7331443;19;110471;-73
2023/07/24 09:52:58;;;;;;;;;;;21.20;99.90;;;;;;7333559;19;109827;-74
2023/07/24 09:55:30;;;;;;;;;;;21.20;99.90;;;;;;7331863;19;109648;-75
2023/07/24 09:57:58;;;;;;;;;;;21.20;99.90;;;;;;7335054;19;110144;-76
2023/07/24 10:00:25;;;;;;;;;;;21.30;99.90;;;;;;7332699;19;108859;-75
2023/07/24 10:02:53;;;;;;;;;;;21.30;99.90;;;;;;7334327;19;108902;-74
2023/07/24 10:05:20;;;;;;;;;;;21.40;99.90;;;;;;7331946;19;110464;-74
2023/07/24 10:07:48;;;;;;;;;;;21.40;99.90;;;;;;7336147;19;111652;-75
2023/07/24 10:10:15;;;;;;;;;;;21.50;99.90;;;;;;7330831;19;111280;-75
2023/07/24 10:12:42;;;;;;;;;;;21.50;99.90;;;;;;7331474;19;109737;-75
2023/07/24 10:15:10;;;;;;;;;;;21.50;99.90;;;;;;7332805;19;109242;-75
2023/07/24 10:17:38;;;;;;;;;;;21.60;99.90;;;;;;7332758;19;109453;-75
2023/07/24 10:20:06;;;;;;;;;;;21.60;99.90;;;;;;7333570;19;108818;-76
2023/07/24 10:22:34;;;;;;;;;;;21.60;99.90;;;;;;7333919;19;110984;-75
2023/07/24 10:25:01;;;;;;;;;;;21.60;99.90;;;;;;7331412;19;110482;-75
2023/07/24 10:27:28;;;;;;;;;;;21.50;99.90;;;;;;7341528;19;108744;-76
2023/07/24 10:30:00;;;;;;;;;;;21.40;99.90;;;;;;7338398;19;109139;-77
2023/07/24 10:32:32;;;;;;;;;;;21.40;99.90;;;;;;7332989;19;108751;-68
2023/07/24 10:35:11;;;;;;;;;;;21.40;99.90;;;;;;7333538;19;108980;-68
2023/07/24 10:37:38;;;;;;;;;;;21.40;99.90;;;;;;7333340;19;109123;-68
2023/07/24 10:40:06;;;;;;;;;;;21.40;99.90;;;;;;7329609;19;110750;-67
2023/07/24 10:42:33;;;;;;;;;;;21.40;99.90;;;;;;7333166;19;108662;-67
2023/07/24 10:45:01;;;;;;;;;;;21.40;99.90;;;;;;7332231;19;109574;-70
2023/07/24 10:47:28;;;;;;;;;;;21.50;99.90;;;;;;7330442;19;108882;-67
2023/07/24 10:49:57;;;;;;;;;;;21.40;99.90;;;;;;7333458;19;110082;-68
2023/07/24 10:52:27;;;;;;;;;;;21.40;99.90;;;;;;7330722;19;108651;-67
2023/07/24 10:54:55;;;;;;;;;;;21.40;99.90;;;;;;7332223;19;109151;-67
2023/07/24 10:57:25;;;;;;;;;;;21.40;99.90;;;;;;7333675;19;110661;-67
2023/07/24 10:59:53;;;;;;;;;;;21.40;99.90;;;;;;7333021;19;108738;-67
2023/07/24 11:02:20;;;;;;;;;;;21.40;99.90;;;;;;7330474;19;108659;-67
2023/07/24 11:04:47;;;;;;;;;;;21.50;99.90;;;;;;7323211;19;109876;-67
2023/07/24 11:07:15;;;;;;;;;;;21.50;99.90;;;;;;7330365;19;109431;-67
2023/07/24 11:09:43;;;;;;;;;;;21.60;99.90;;;;;;7338736;19;109202;-67
2023/07/24 11:12:16;;;;;;;;;;;21.60;99.90;;;;;;7344326;19;109111;-94
2023/07/24 11:14:50;;;;;;;;;;;21.70;99.90;;;;;;7354247;19;112030;-95
2023/07/24 11:17:18;;;;;;;;;;;21.80;99.90;;;;;;7352114;19;111531;-94
2023/07/24 11:19:46;;;;;;;;;;;21.80;99.90;;;;;;7356953;19;108364;-96
2023/07/24 11:22:16;;;;;;;;;;;22.00;99.90;;;;;;7355434;19;110702;-95
2023/07/24 11:24:47;;;;;;;;;;;22.10;99.90;;;;;;7372743;19;111080;-96
2023/07/24 11:27:15;;;;;;;;;;;22.30;99.90;;;;;;7367166;19;108275;-95
2023/07/24 11:29:47;;;;;;;;;;;22.40;99.90;;;;;;7362894;19;111480;-95
2023/07/24 11:35:00;;;;;;;;;;;22.50;99.90;;;;;;7333084;19;110166;-68
2023/07/24 11:37:28;;;;;;;;;;;22.60;99.90;;;;;;7334604;19;109136;-68
2023/07/24 11:39:56;;;;;;;;;;;22.70;99.90;;;;;;7330636;19;108642;-68
2023/07/24 11:42:27;;;;;;;;;;;22.70;99.90;;;;;;7331200;19;111913;-68
2023/07/24 11:44:54;;;;;;;;;;;22.70;99.90;;;;;;7332225;19;109374;-68
2023/07/24 11:47:21;;;;;;;;;;;22.80;99.90;;;;;;7332282;19;109007;-68
2023/07/24 11:50:01;;;;;;;;;;;22.70;99.90;;;;;;7338436;19;109055;-68
2023/07/24 11:52:43;;;;;;;;;;;22.70;99.90;;;;;;7330261;19;110814;-68
2023/07/24 11:55:11;;;;;;;;;;;22.70;99.90;;;;;;7335337;19;109516;-68
2023/07/24 11:57:39;;;;;;;;;;;22.80;99.90;;;;;;7340218;19;109102;-67
2023/07/24 12:00:17;;;;;;;;;;;22.90;99.90;;;;;;7334895;19;109427;-68
2023/07/24 12:02:44;;;;;;;;;;;23.00;99.90;;;;;;7336621;19;108724;-68
2023/07/24 12:05:11;;;;;;;;;;;23.10;99.90;;;;;;7334104;19;109098;-68
2023/07/24 12:07:38;;;;;;;;;;;23.10;99.90;;;;;;7335213;19;109526;-68
2023/07/24 12:10:09;;;;;;;;;;;23.10;99.90;;;;;;7333672;19;110041;-68
2023/07/24 12:12:40;;;;;;;;;;;23.20;99.90;;;;;;7336824;19;110379;-68
2023/07/24 12:15:07;;;;;;;;;;;23.20;99.90;;;;;;7335786;19;109708;-67
2023/07/24 12:17:35;;;;;;;;;;;23.30;99.90;;;;;;7332382;19;110107;-68
2023/07/24 12:20:04;;;;;;;;;;;23.50;99.90;;;;;;7339987;19;109206;-67
2023/07/24 12:22:31;;;;;;;;;;;23.60;99.90;;;;;;7336682;19;110180;-65
2023/07/24 12:24:58;;;;;;;;;;;23.80;99.90;;;;;;7338471;19;110788;-68
2023/07/24 12:27:26;;;;;;;;;;;23.90;99.90;;;;;;7330464;19;109441;-68
2023/07/24 12:29:53;;;;;;;;;;;24.10;99.90;;;;;;7331042;19;109221;-68
2023/07/24 12:32:21;;;;;;;;;;;24.10;99.90;;;;;;7331609;19;113357;-68
2023/07/24 12:34:49;;;;;;;;;;;24.20;99.90;;;;;;7331924;19;108559;-68
2023/07/24 12:37:16;;;;;;;;;;;24.30;99.90;;;;;;7328864;19;110202;-66
2023/07/24 12:39:44;;;;;;;;;;;24.50;99.90;;;;;;7328561;19;111332;-66
2023/07/24 12:42:11;;;;;;;;;;;24.70;99.90;;;;;;7341732;19;110009;-66
2023/07/24 12:44:38;;;;;;;;;;;24.80;99.90;;;;;;7335122;19;109160;-66
2023/07/24 12:47:06;;;;;;;;;;;24.90;99.90;;;;;;7334975;19;110793;-66
2023/07/24 12:49:33;;;;;;;;;;;24.80;99.90;;;;;;7332246;19;108685;-66
2023/07/24 12:52:00;;;;;;;;;;;24.70;99.90;;;;;;7331881;19;109006;-66
2023/07/24 12:54:27;;;;;;;;;;;24.60;99.90;;;;;;7328877;19;114094;-66
2023/07/24 12:57:14;;;;;;;;;;;24.50;99.90;;;;;;7328859;19;111526;-66
2023/07/24 12:59:42;;;;;;;;;;;24.50;99.90;;;;;;7331255;19;111423;-67
2023/07/24 13:02:09;;;;;;;;;;;24.30;99.90;;;;;;7336926;19;108531;-67
2023/07/24 13:04:36;;;;;;;;;;;24.20;99.90;;;;;;7333614;19;109466;-66
2023/07/24 13:07:04;;;;;;;;;;;24.20;99.90;;;;;;7333824;19;109061;-66
2023/07/24 13:09:31;;;;;;;;;;;24.20;99.90;;;;;;7332764;19;110733;-66
2023/07/24 13:11:58;;;;;;;;;;;24.20;99.90;;;;;;7335709;19;109081;-66
2023/07/24 13:14:26;;;;;;;;;;;24.10;99.90;;;;;;7331591;19;110183;-66
2023/07/24 13:16:53;;;;;;;;;;;24.10;99.90;;;;;;7335465;19;109644;-66
2023/07/24 13:19:20;;;;;;;;;;;24.20;99.90;;;;;;7330775;19;110437;-66
2023/07/24 13:21:47;;;;;;;;;;;24.30;99.90;;;;;;7334006;19;108816;-66
2023/07/24 13:24:14;;;;;;;;;;;24.50;99.90;;;;;;7339273;19;108736;-66
2023/07/24 13:26:42;;;;;;;;;;;24.70;99.90;;;;;;7332221;19;110579;-66
2023/07/24 13:29:09;;;;;;;;;;;24.80;99.90;;;;;;7332353;19;108773;-66
2023/07/24 13:31:36;;;;;;;;;;;24.80;99.90;;;;;;7330497;19;110480;-66
2023/07/24 13:34:04;;;;;;;;;;;24.90;99.90;;;;;;7332555;19;109862;-67
2023/07/24 13:36:31;;;;;;;;;;;25.00;99.90;;;;;;7333381;19;112169;-66
2023/07/24 13:38:58;;;;;;;;;;;25.10;99.90;;;;;;7334411;19;110290;-66
2023/07/24 13:41:25;;;;;;;;;;;25.20;99.90;;;;;;7332482;19;109318;-66
2023/07/24 13:43:52;;;;;;;;;;;25.10;99.90;;;;;;7332130;19;108509;-66
2023/07/24 13:46:20;;;;;;;;;;;25.00;99.90;;;;;;7335853;19;110673;-66
2023/07/24 13:48:47;;;;;;;;;;;24.80;99.90;;;;;;7333129;19;108758;-66
2023/07/24 13:51:14;;;;;;;;;;;24.70;99.90;;;;;;7333193;19;109266;-66
2023/07/24 13:53:41;;;;;;;;;;;24.60;99.90;;;;;;7332555;19;108376;-66
2023/07/24 13:56:09;;;;;;;;;;;24.50;99.90;;;;;;7328874;19;109052;-66
2023/07/24 13:58:36;;;;;;;;;;;24.40;99.90;;;;;;7330908;19;109196;-66
2023/07/24 14:01:03;;;;;;;;;;;24.30;99.90;;;;;;7334305;19;108511;-66
2023/07/24 14:03:30;;;;;;;;;;;24.10;99.90;;;;;;7330737;19;110037;-66
2023/07/24 14:06:00;;;;;;;;;;;23.90;99.90;;;;;;7334249;19;110163;-66
2023/07/24 14:08:27;;;;;;;;;;;23.50;99.90;;;;;;7339062;19;108861;-66
2023/07/24 14:10:54;;;;;;;;;;;23.10;99.90;;;;;;7324618;19;109607;-66